メインページ
METAR-TAF:

METAR-TAF

空港 :

イカルイト, ヌナブト準州, カナダ

イカルイト空港

緯度: 63-45N, 経度: 068-33W, 海抜: 34m

現時点の気象観測

当レポートは1時間2分前の11:00(UTC)に作成
無風
気温 -23°C
湿度 76%
気圧 1002 hPa
視程: 6.4km
高度7000ftの曇り
氷晶

METAR: CYFB 241100Z 00000KT 4SM IC OVC070 M23/M26 A2960 RMK IC5AC3 SLP029

時間: 08:02 (12:02 UTC)

予報

当レポートは24分前の11:38(UTC)に作成
予報は24日の 12時(UTC)から 25日の 12時(UTC)まで有効
変向風 3kt
視程: 10km
高度4000ftの雲は散在している
高度7000ftの曇り
氷晶
24日の 12時(UTC)から 24日の 15時(UTC)まで一時的に
視程: 6.4km
高度2000ftの雲は散在している
高度4000ftの曇り
氷晶
24日の 1500時(UTC)から
東/南東の風 12kt
視程: 9.7km
高度3000ftの曇り
小雪
24日の 15時(UTC)から 24日の 21時(UTC)まで一時的に
視程: 3.2km
高度2000ftの曇り
小雪
24日の 2100時(UTC)から
の風 10kt
視程: 10km
高度4000ftの千切れ雲あり
24日の 21時(UTC)から 25日の 03時(UTC)まで一時的に
視程: 8.0km
高度3000ftの千切れ雲あり
小雪
25日の 0300時(UTC)から
北/北西の風 8kt
視程: 10km
高度4000ftの雲は散在している

TAF: CYFB 241138Z 2412/2512 VRB03KT P6SM IC SCT040 OVC070 TEMPO 2412/2415 4SM IC SCT020 OVC040 FM241500 12012KT 6SM -SN OVC030 TEMPO 2415/2421 2SM -SN OVC020 FM242100 18010KT P6SM BKN040 TEMPO 2421/2503 5SM -SN BKN030 FM250300 33008KT P6SM SCT040 RMK NXT FCST BY 241800Z

4,000以上の空港の気象観測と天気予報(METAR報とTAF報)

利用可能な観測所は地図上に黄色い丸と赤い丸で示す。

丸の上にカーソルを重ねると観測所名を参照できる。

次にクリックすると気象観測と天気予報を参照できる。

マップの切り替え:黒色「×」印の緑ボタンをクリックして拡大、「-」印の緑ボタンをクリックして縮小、緑色の三角印をクリックして隣りの地図に切り替え


METAR-TAF: